Home > Products > Valid Products > MTR

000
SAUS43 KEAX 271900 COR
MTRCDJ
METAR KCDJ 271852Z AUTO 12013G18KT 22/16 A3004 RMK AO1 PRESFR SLP166
T02220156





000
SAUS43 KEAX 271801 COR
MTRCDJ
METAR KCDJ 271752Z AUTO 00000KT 22/17 A3020 RMK AO1 SLP219 T02220167
10244 20144 53020





000
SAUS43 KEAX 271656
MTRCDJ
METAR KCDJ 271652Z AUTO 10005KT 24/16 A3016 RMK AO1 SLP207 T02440156





000
SAUS43 KEAX 271601 COR
MTRCDJ
METAR KCDJ 271552Z AUTO 15008KT 120V180 23/16 A3015 RMK AO1 SLP201
T02330156





000
SAUS43 KEAX 271601 COR
MTRCDJ
METAR KCDJ 271552Z AUTO 15008KT 120V180 23/16 A3015 RMK AO1 SLP201
T02330156





000
SAUS43 KEAX 271500 COR
MTRCDJ
METAR KCDJ 271452Z AUTO 15007KT 21/15 A3014 RMK AO1 SLP199 T02060150
53004





000
SAUS43 KEAX 271356
MTRCDJ
METAR KCDJ 271352Z AUTO 14006KT 18/14 A3011 RMK AO1 SLP191 T01830144





000
SAUS43 KEAX 271256
MTRCDJ
METAR KCDJ 271252Z AUTO 00000KT 16/14 A3014 RMK AO1 SLP202 T01610139





000
SAUS43 KEAX 271256
MTRCDJ
METAR KCDJ 271252Z AUTO 00000KT 16/14 A3014 RMK AO1 SLP202 T01610139





000
SAUS43 KEAX 271156
MTRCDJ
METAR KCDJ 271152Z AUTO 00000KT 14/13 A3013 RMK AO1 SLP195 T01440128
10156 20139 50001





000
SAUS43 KEAX 271156
MTRCDJ
METAR KCDJ 271152Z AUTO 00000KT 14/13 A3013 RMK AO1 SLP195 T01440128
10156 20139 50001





000
SAUS43 KEAX 271100 COR
MTRCDJ
METAR KCDJ 271052Z AUTO 00000KT 14/13 A3013 RMK AO1 SLP196 T01440128





000
SAUS43 KEAX 271100 COR
MTRCDJ
METAR KCDJ 271052Z AUTO 00000KT 14/13 A3013 RMK AO1 SLP196 T01440128





000
SAUS43 KEAX 271000 COR
MTRCDJ
METAR KCDJ 270952Z AUTO 00000KT 16/13 A3012 RMK AO1 SLP192 T01560133





000
SAUS43 KEAX 270900 COR
MTRCDJ
METAR KCDJ 270852Z AUTO 00000KT 14/13 A3012 RMK AO1 SLP192 T01440133
55006





000
SAUS43 KEAX 270900 COR
MTRCDJ
METAR KCDJ 270852Z AUTO 00000KT 14/13 A3012 RMK AO1 SLP192 T01440133
55006





000
SAUS43 KEAX 270756
MTRCDJ
METAR KCDJ 270752Z AUTO 00000KT 14/13 A3012 RMK AO1 SLP191 T01440133





000
SAUS43 KEAX 270756
MTRCDJ
METAR KCDJ 270752Z AUTO 00000KT 14/13 A3012 RMK AO1 SLP191 T01440133





000
SAUS43 KEAX 270700 COR
MTRCDJ
METAR KCDJ 270652Z AUTO 00000KT 15/14 A3013 RMK AO1 SLP193 T01500139





000
SAUS43 KEAX 270600 COR
MTRCDJ
METAR KCDJ 270552Z AUTO 00000KT 15/13 A3014 RMK AO1 SLP199 T01500133
10244 20144 402720117 58005





000
SAUS43 KEAX 270456
MTRCDJ
METAR KCDJ 270452Z AUTO 00000KT 16/14 A3015 RMK AO1 SLP202 T01560139





000
SAUS43 KEAX 270356
MTRCDJ
METAR KCDJ 270352Z AUTO 00000KT 16/14 A3016 RMK AO1 SLP205 T01610139





000
SAUS43 KEAX 270256
MTRCDJ
METAR KCDJ 270252Z AUTO 00000KT 17/14 A3016 RMK AO1 SLP205 T01670144
53011





000
SAUS43 KEAX 270156
MTRCDJ
METAR KCDJ 270152Z AUTO 00000KT 18/15 A3014 RMK AO1 SLP201 T01830150





000
SAUS43 KEAX 270100 COR
MTRCDJ
METAR KCDJ 270052Z AUTO 00000KT 20/16 A3013 RMK AO1 SLP197 T02000156





000
SAUS43 KEAX 270100 COR
MTRCDJ
METAR KCDJ 270052Z AUTO 00000KT 20/16 A3013 RMK AO1 SLP197 T02000156





000
SAUS43 KEAX 270001 COR
MTRCDJ
METAR KCDJ 262352Z AUTO 00000KT 24/14 A3012 RMK AO1 SLP195 T02440139
10272 20244 55008





000
SAUS43 KEAX 270001 COR
MTRCDJ
METAR KCDJ 262352Z AUTO 00000KT 24/14 A3012 RMK AO1 SLP195 T02440139
10272 20244 55008





000
SAUS43 KEAX 262300 COR
MTRCDJ
METAR KCDJ 262252Z AUTO 13005KT 26/13 A3012 RMK AO1 SLP192 T02610133





000
SAUS43 KEAX 262156
MTRCDJ
METAR KCDJ 262152Z AUTO 20004KT 26/13 A3013 RMK AO1 SLP195 T02610128





000
SAUS43 KEAX 262156
MTRCDJ
METAR KCDJ 262152Z AUTO 20004KT 26/13 A3013 RMK AO1 SLP195 T02610128





000
SAUS43 KEAX 262056
MTRCDJ
METAR KCDJ 262052Z AUTO 00000KT 27/11 A3015 RMK AO1 SLP202 T02720111
58018





000
SAUS43 KEAX 262056
MTRCDJ
METAR KCDJ 262052Z AUTO 00000KT 27/11 A3015 RMK AO1 SLP202 T02720111
58018





000
SAUS43 KEAX 261956
MTRCDJ
METAR KCDJ 261952Z AUTO 00000KT 27/12 A3018 RMK AO1 SLP211 T02720122





000
SAUS43 KEAX 261956
MTRCDJ
METAR KCDJ 261952Z AUTO 00000KT 27/12 A3018 RMK AO1 SLP211 T02720122





000
SAUS43 KEAX 261900 COR
MTRCDJ
METAR KCDJ 261852Z AUTO VRB03KT 26/13 A3019 RMK AO1 SLP216 T02610133





000
SAUS43 KEAX 261759 COR
MTRCDJ
METAR KCDJ 261752Z AUTO 00000KT 24/13 A3020 RMK AO1 SLP221 T02440128
10256 20122





000
SAUS43 KEAX 261759 COR
MTRCDJ
METAR KCDJ 261752Z AUTO 00000KT 24/13 A3020 RMK AO1 SLP221 T02440128
10256 20122





000
SAUS43 KEAX 261700 COR
MTRCDJ
METAR KCDJ 261652Z AUTO 10003KT 24/13 A3022 RMK AO1 SLP225 T02390133





000
SAUS43 KEAX 261700 COR
MTRCDJ
METAR KCDJ 261652Z AUTO 10003KT 24/13 A3022 RMK AO1 SLP225 T02390133





000
SAUS43 KEAX 261556
MTRCDJ
METAR KCDJ 261552Z AUTO 07004KT 23/13 A3023 RMK AO1 SLP229 T02280133





000
SAUS43 KEAX 261556
MTRCDJ
METAR KCDJ 261552Z AUTO 07004KT 23/13 A3023 RMK AO1 SLP229 T02280133





000
SAUS43 KEAX 261459 COR
MTRCDJ
METAR KCDJ 261452Z AUTO VRB04KT 21/14 A3022 RMK AO1 SLP228 T02110139
50005





000
SAUS43 KEAX 261459 COR
MTRCDJ
METAR KCDJ 261452Z AUTO VRB04KT 21/14 A3022 RMK AO1 SLP228 T02110139
50005





000
SAUS43 KEAX 261400 COR
MTRCDJ
METAR KCDJ 261352Z AUTO 00000KT 19/14 A3023 RMK AO1 SLP231 T01890144





000
SAUS43 KEAX 261400 COR
MTRCDJ
METAR KCDJ 261352Z AUTO 00000KT 19/14 A3023 RMK AO1 SLP231 T01890144





000
SAUS43 KEAX 261256
MTRCDJ
METAR KCDJ 261252Z AUTO 00000KT 15/13 A3022 RMK AO1 SLP228 T01500133





000
SAUS43 KEAX 261256
MTRCDJ
METAR KCDJ 261252Z AUTO 00000KT 15/13 A3022 RMK AO1 SLP228 T01500133





000
SAUS43 KEAX 261157 COR
MTRCDJ
METAR KCDJ 261152Z AUTO 00000KT 12/11 A3021 RMK AO1 SLP223 T01220111
10144 20117 53010





000
SAUS43 KEAX 261157 COR
MTRCDJ
METAR KCDJ 261152Z AUTO 00000KT 12/11 A3021 RMK AO1 SLP223 T01220111
10144 20117 53010





000
SAUS43 KEAX 261057 COR
MTRCDJ
METAR KCDJ 261052Z AUTO 00000KT 12/11 A3019 RMK AO1 SLP216 T01170106





000
SAUS43 KEAX 261057 COR
MTRCDJ
METAR KCDJ 261052Z AUTO 00000KT 12/11 A3019 RMK AO1 SLP216 T01170106





000
SAUS43 KEAX 260957 COR
MTRCDJ
METAR KCDJ 260952Z AUTO 00000KT 12/11 A3018 RMK AO1 SLP212 T01220111





000
SAUS43 KEAX 260901 COR
MTRCDJ
METAR KCDJ 260852Z AUTO 00000KT 12/12 A3018 RMK AO1 SLP211 T01220117
51005





000
SAUS43 KEAX 260901 COR
MTRCDJ
METAR KCDJ 260852Z AUTO 00000KT 12/12 A3018 RMK AO1 SLP211 T01220117
51005





000
SAUS43 KEAX 260801 COR
MTRCDJ
METAR KCDJ 260752Z AUTO 00000KT 13/12 A3018 RMK AO1 SLP211 T01330122





000
SAUS43 KEAX 260657 COR
MTRCDJ
METAR KCDJ 260652Z AUTO 00000KT 14/13 A3017 RMK AO1 SLP208 T01390128





000
SAUS43 KEAX 260657 COR
MTRCDJ
METAR KCDJ 260652Z AUTO 00000KT 14/13 A3017 RMK AO1 SLP208 T01390128





000
SAUS43 KEAX 260557 COR
MTRCDJ
METAR KCDJ 260552Z AUTO 00000KT 14/13 A3016 RMK AO1 SLP206 T01440128
10256 20144 402780117 53007





000
SAUS43 KEAX 260557 COR
MTRCDJ
METAR KCDJ 260552Z AUTO 00000KT 14/13 A3016 RMK AO1 SLP206 T01440128
10256 20144 402780117 53007





000
SAUS43 KEAX 260457 COR
MTRCDJ
METAR KCDJ 260452Z AUTO 00000KT 16/13 A3015 RMK AO1 SLP202 T01560133





000
SAUS43 KEAX 260357 COR
MTRCDJ
METAR KCDJ 260352Z AUTO 00000KT 16/14 A3014 RMK AO1 SLP200 T01560139





000
SAUS43 KEAX 260257 COR
MTRCDJ
METAR KCDJ 260252Z AUTO 00000KT 17/14 A3014 RMK AO1 SLP199 T01720139
53009





000
SAUS43 KEAX 260157 COR
MTRCDJ
METAR KCDJ 260152Z AUTO 00000KT 18/15 A3013 RMK AO1 SLP196 T01780150





000
SAUS43 KEAX 260157 COR
MTRCDJ
METAR KCDJ 260152Z AUTO 00000KT 18/15 A3013 RMK AO1 SLP196 T01780150





000
SAUS43 KEAX 260057 COR
MTRCDJ
METAR KCDJ 260052Z AUTO 00000KT 21/16 A3011 RMK AO1 SLP192 T02060156





000
SAUS43 KEAX 260057 COR
MTRCDJ
METAR KCDJ 260052Z AUTO 00000KT 21/16 A3011 RMK AO1 SLP192 T02060156





000
SAUS43 KEAX 260001 COR
MTRCDJ
METAR KCDJ 252352Z AUTO 00000KT 26/13 A3011 RMK AO1 SLP190 T02560133
10278 20250 56007





000
SAUS43 KEAX 260001 COR
MTRCDJ
METAR KCDJ 252352Z AUTO 00000KT 26/13 A3011 RMK AO1 SLP190 T02560133
10278 20250 56007





000
SAUS43 KEAX 252300 COR
MTRCDJ
METAR KCDJ 252252Z AUTO 36004KT 27/12 A3012 RMK AO1 SLP192 T02670122





000
SAUS43 KEAX 252300 COR
MTRCDJ
METAR KCDJ 252252Z AUTO 36004KT 27/12 A3012 RMK AO1 SLP192 T02670122





000
SAUS43 KEAX 252157 COR
MTRCDJ
METAR KCDJ 252152Z AUTO VRB03KT 27/12 A3012 RMK AO1 SLP193 T02720117





000
SAUS43 KEAX 252157 COR
MTRCDJ
METAR KCDJ 252152Z AUTO VRB03KT 27/12 A3012 RMK AO1 SLP193 T02720117





000
SAUS43 KEAX 252057 COR
MTRCDJ
METAR KCDJ 252052Z AUTO 33004KT 27/11 A3013 RMK AO1 SLP196 T02720111
56014





000
SAUS43 KEAX 252057 COR
MTRCDJ
METAR KCDJ 252052Z AUTO 33004KT 27/11 A3013 RMK AO1 SLP196 T02720111
56014





000
SAUS43 KEAX 251957 COR
MTRCDJ
METAR KCDJ 251952Z AUTO 35006KT 27/11 A3015 RMK AO1 SLP202 T02670106





000
SAUS43 KEAX 251901 COR
MTRCDJ
METAR KCDJ 251852Z AUTO 31007KT 26/12 A3016 RMK AO1 SLP206 T02610117





000
SAUS43 KEAX 251901 COR
MTRCDJ
METAR KCDJ 251852Z AUTO 31007KT 26/12 A3016 RMK AO1 SLP206 T02610117





000
SAUS43 KEAX 251757 COR
MTRCDJ
METAR KCDJ 251752Z AUTO 04006KT 26/12 A3018 RMK AO1 SLP211 T02560117
10256 20117 58010





000
SAUS43 KEAX 251657 COR
MTRCDJ
METAR KCDJ 251652Z AUTO 32007KT 300V010 24/11 A3020 RMK AO1 SLP219
T02390111





000
SAUS43 KEAX 251600 COR
MTRCDJ
METAR KCDJ 251552Z AUTO VRB04KT 23/11 A3021 RMK AO1 SLP223 T02280111





000
SAUS43 KEAX 251457 COR
MTRCDJ
METAR KCDJ 251452Z AUTO 02005KT 21/12 A3021 RMK AO1 SLP223 T02110122
51010





000
SAUS43 KEAX 251457 COR
MTRCDJ
METAR KCDJ 251452Z AUTO 02005KT 21/12 A3021 RMK AO1 SLP223 T02110122
51010





000
SAUS43 KEAX 251401 COR
MTRCDJ
METAR KCDJ 251352Z AUTO 00000KT 18/14 A3021 RMK AO1 SLP223 T01780139





000
SAUS43 KEAX 251401 COR
MTRCDJ
METAR KCDJ 251352Z AUTO 00000KT 18/14 A3021 RMK AO1 SLP223 T01780139





000
SAUS43 KEAX 251257 COR
MTRCDJ
METAR KCDJ 251252Z AUTO 00000KT 14/13 A3019 RMK AO1 SLP219 T01390128





000
SAUS43 KEAX 251257 COR
MTRCDJ
METAR KCDJ 251252Z AUTO 00000KT 14/13 A3019 RMK AO1 SLP219 T01390128





000
SAUS43 KEAX 251201 COR
MTRCDJ
METAR KCDJ 251152Z AUTO 00000KT 12/11 A3018 RMK AO1 SLP212 T01170106
10139 20117 53011





000
SAUS43 KEAX 251201 COR
MTRCDJ
METAR KCDJ 251152Z AUTO 00000KT 12/11 A3018 RMK AO1 SLP212 T01170106
10139 20117 53011





000
SAUS43 KEAX 251100 COR
MTRCDJ
METAR KCDJ 251052Z AUTO 00000KT 12/11 A3016 RMK AO1 SLP208 T01170106





000
SAUS43 KEAX 251100 COR
MTRCDJ
METAR KCDJ 251052Z AUTO 00000KT 12/11 A3016 RMK AO1 SLP208 T01170106





000
SAUS43 KEAX 251001 COR
MTRCDJ
METAR KCDJ 250952Z AUTO 00000KT 12/11 A3015 RMK AO1 SLP202 T01170106





000
SAUS43 KEAX 250900 COR
MTRCDJ
METAR KCDJ 250852Z AUTO 00000KT 12/11 A3014 RMK AO1 SLP199 T01220111
50001





000
SAUS43 KEAX 250900 COR
MTRCDJ
METAR KCDJ 250852Z AUTO 00000KT 12/11 A3014 RMK AO1 SLP199 T01220111
50001





000
SAUS43 KEAX 250802 COR
MTRCDJ
METAR KCDJ 250752Z AUTO 00000KT 13/12 A3014 RMK AO1 SLP200 T01280117





000
SAUS43 KEAX 250701 COR
MTRCDJ
METAR KCDJ 250652Z AUTO 00000KT 13/12 A3015 RMK AO1 SLP201 T01330117





000
SAUS43 KEAX 250701 COR
MTRCDJ
METAR KCDJ 250652Z AUTO 00000KT 13/12 A3015 RMK AO1 SLP201 T01330117





000
SAUS43 KEAX 250553
MTRCDJ
METAR KCDJ 250552Z AUTO 00000KT 14/12 A3014 RMK AO1 SLP198 T01390122
10256 20139 402780094 51005





000
SAUS43 KEAX 250553
MTRCDJ
METAR KCDJ 250552Z AUTO 00000KT 14/12 A3014 RMK AO1 SLP198 T01390122
10256 20139 402780094 51005





000
SAUS43 KEAX 250453
MTRCDJ
METAR KCDJ 250452Z AUTO 00000KT 14/13 A3013 RMK AO1 SLP197 T01440128





000
SAUS43 KEAX 250354
MTRCDJ
METAR KCDJ 250352Z AUTO 00000KT 16/13 A3013 RMK AO1 SLP197 T01560128





000
SAUS43 KEAX 250354
MTRCDJ
METAR KCDJ 250352Z AUTO 00000KT 16/13 A3013 RMK AO1 SLP197 T01560128





000
SAUS43 KEAX 250253
MTRCDJ
METAR KCDJ 250252Z AUTO 00000KT 16/13 A3012 RMK AO1 SLP195 T01610133
53011





000
SAUS43 KEAX 250153
MTRCDJ
METAR KCDJ 250152Z AUTO 00000KT 18/13 A3010 RMK AO1 SLP188 T01830133





000
SAUS43 KEAX 250153
MTRCDJ
METAR KCDJ 250152Z AUTO 00000KT 18/13 A3010 RMK AO1 SLP188 T01830133





000
SAUS43 KEAX 250053
MTRCDJ
METAR KCDJ 250052Z AUTO 00000KT 21/13 A3009 RMK AO1 SLP185 T02110128





000
SAUS43 KEAX 242353
MTRCDJ
METAR KCDJ 242352Z AUTO 29004KT 26/11 A3009 RMK AO1 SLP184 T02560111
10278 20256 56007





000
SAUS43 KEAX 242353
MTRCDJ
METAR KCDJ 242352Z AUTO 29004KT 26/11 A3009 RMK AO1 SLP184 T02560111
10278 20256 56007





000
SAUS43 KEAX 242253
MTRCDJ
METAR KCDJ 242252Z AUTO 31007KT 27/11 A3009 RMK AO1 SLP185 T02670106





000
SAUS43 KEAX 242253
MTRCDJ
METAR KCDJ 242252Z AUTO 31007KT 27/11 A3009 RMK AO1 SLP185 T02670106





000
SAUS43 KEAX 242153
MTRCDJ
METAR KCDJ 242152Z AUTO 28/11 A3010 RMK AO1 SLP186 T02780106





000
SAUS43 KEAX 242054
MTRCDJ
METAR KCDJ 242052Z AUTO 30007G18KT 240V330 27/10 A3011 RMK AO1
SLP190 T02720100 56012





000
SAUS43 KEAX 241953
MTRCDJ
METAR KCDJ 241952Z AUTO 28005KT 27/09 A3012 RMK AO1 SLP193 T02670094





000
SAUS43 KEAX 241953
MTRCDJ
METAR KCDJ 241952Z AUTO 28005KT 27/09 A3012 RMK AO1 SLP193 T02670094





    US Dept of Commerce
    National Oceanic and Atmospheric Administration
    National Weather Service
    1325 East West Highway
    Silver Spring, MD 20910
    Page Author: NWS Internet Services Team
Disclaimer
Information Quality
Credits
Glossary
Privacy Policy
Freedom of Information Act (FOIA)
About Us
Career Opportunities